Aurora, OR

10:44 AM PDT on October 25, 2014 (GMT -0700)
Mineral Springs View | Change Station
CLOSE
Current Station
Personal Weather Station
Location: Hubbard, OR
Elevation: 177 ft
Nearby Weather Stations
Active Advisory: High Wind Warning

Elev 177 ft 45.19 °N, 122.81 °W | Updated 3 seconds ago

Overcast
Overcast
57.9 °F
Feels Like 57.9 °F
N
2.7
Wind Variable Wind from ENE

Today
High -- | Low -- °F
--% Chance of Precip.
Yesterday
High -- | Low -- °F
Precip. -- in
7:40 AM 6:09 PM
Waxing Crescent, 4% visible
Pressure 29.43 in
Visibility 10.0 miles
Clouds Mostly Cloudy 9000 ft
Overcast 10000 ft
Dew Point 57 °F
Humidity 97%
Rainfall 0.10 in
Snow Depth Not available.
UV 0 out of 12
Pollen .40 out of 12
Air Quality Not available.
Flu Activity Not available.
METAR KUAO 251653Z AUTO 02007KT 10SM BKN090 OVC100 13/11 A2943 RMK AO2 SLP965 T01280111

More Conditions Fewer Conditions

Pressure 29.43 in
Visibility 10.0 miles
Clouds Mostly Cloudy 9000 ft
Overcast 10000 ft
Dew Point 57 °F
Humidity 97%
Rainfall 0.10 in
Snow Depth Not available.
UV 0 out of 12
Pollen .40 out of 12
Air Quality Not available.
Flu Activity Not available.
METAR KUAO 251653Z AUTO 02007KT 10SM BKN090 OVC100 13/11 A2943 RMK AO2 SLP965 T01280111

More Conditions Fewer Conditions

10-Day Weather Forecast

Almanac

Astronomy

Oct. 25, 2014 Rise Set
Actual Time 7:40 AM PDT 6:09 PM PDT
Civil Twilight 7:10 AM PDT 6:39 PM PDT
Nautical Twilight 6:35 AM PDT 7:13 PM PDT
Astronomical Twilight 6:01 AM PDT 7:47 PM PDT
Moon 9:28 AM PDT 7:32 PM PDT
Length of Visible Light 11h 28m
Length of Day
10h 28m
Tomorrow will be 2m 56s shorter.
Waxing Crescent, 4% of the Moon is Illuminated
Today
Waxing Crescent
Oct 30
First Quarter
Nov 6
Full
Nov 14
Last Quarter
Nov 22
New

Today's Extremes

State Highs State Lows

Community

WunderPhotos

Upload Photos

1,764,919 photos uploaded!

Nearby

Snow Depth

Station Depth Elevation
Seine Creek 0 in 2000 ft
North Fork 0 in 3120 ft
Peavine Ridge 0 in 3500 ft
Little Meadows 0 in 4000 ft
Clackamas Lake 0 in 3400 ft

Earthquake Activity

City Distance Mag. Time & Date
No recent earthquake activity has been reported nearby.
Minimum magnitude displayed is 2.5.

Coastal Water Temperatures

Place Temperature
No Stations Reporting

Nearby Weather Stations